createdAt,value
2022-08-26T00:01:46.623Z,95404.02
2022-08-26T00:04:13.568Z,95405.03
2022-08-26T00:06:42.472Z,95404.23
2022-08-26T00:09:16.078Z,95401.34
2022-08-26T00:11:44.861Z,95400.52
2022-08-26T00:14:13.534Z,95402.42
2022-08-26T00:16:47.875Z,95402.76
2022-08-26T00:19:17.691Z,95396.94
2022-08-26T00:21:46.585Z,95396.61
2022-08-26T00:24:18.631Z,95396.52
2022-08-26T00:26:45.882Z,95397.79
2022-08-26T00:29:13.460Z,95399.21
2022-08-26T00:31:40.457Z,95394.73
2022-08-26T00:34:09.525Z,95391.10
2022-08-26T00:36:37.455Z,95384.23
2022-08-26T00:39:09.197Z,95382.60
2022-08-26T00:41:39.702Z,95383.94
2022-08-26T00:44:07.723Z,95385.29
2022-08-26T00:46:39.372Z,95388.28
2022-08-26T00:49:21.898Z,95390.11
2022-08-26T00:51:52.989Z,95383.73
2022-08-26T00:54:22.441Z,95388.42
2022-08-26T00:57:00.833Z,95391.05
2022-08-26T00:59:32.705Z,95391.20
2022-08-26T01:02:02.820Z,95392.40
2022-08-26T01:04:32.972Z,95391.72
2022-08-26T01:07:00.345Z,95391.50
2022-08-26T01:09:28.313Z,95389.45
2022-08-26T01:12:00.267Z,95387.87
2022-08-26T01:14:32.055Z,95393.80
2022-08-26T01:17:01.727Z,95391.89
2022-08-26T01:19:43.028Z,95399.13
2022-08-26T01:22:57.062Z,95396.39
2022-08-26T01:25:28.333Z,95392.51
2022-08-26T01:27:59.028Z,95392.71
2022-08-26T01:30:28.354Z,95393.05
2022-08-26T01:32:58.831Z,95393.36
2022-08-26T01:35:25.845Z,95392.75
2022-08-26T01:37:55.536Z,95389.91
2022-08-26T01:40:32.213Z,95392.55
2022-08-26T01:43:01.999Z,95393.65
2022-08-26T01:45:32.687Z,95390.35
2022-08-26T01:48:03.969Z,95392.36
2022-08-26T01:50:34.239Z,95392.92
2022-08-26T01:53:08.867Z,95396.30
2022-08-26T01:55:41.198Z,95395.98
2022-08-26T01:58:22.212Z,95395.61
2022-08-26T02:00:50.611Z,95391.71
2022-08-26T02:03:21.123Z,95391.27
2022-08-26T02:06:00.742Z,95389.02
2022-08-26T02:08:42.991Z,95387.72
2022-08-26T02:11:11.081Z,95387.23
2022-08-26T02:13:41.431Z,95391.05
2022-08-26T02:16:11.390Z,95391.84
2022-08-26T02:18:40.929Z,95387.38
2022-08-26T02:21:10.557Z,95388.61
2022-08-26T02:23:39.858Z,95385.34
2022-08-26T02:26:19.308Z,95382.80
2022-08-26T02:28:53.001Z,95381.61
2022-08-26T02:31:20.026Z,95381.64
2022-08-26T02:33:47.810Z,95381.74
2022-08-26T02:36:20.598Z,95375.73
2022-08-26T02:38:47.432Z,95375.02
2022-08-26T02:41:15.110Z,95368.25
2022-08-26T02:43:42.329Z,95370.61
2022-08-26T02:46:10.045Z,95367.62
2022-08-26T02:48:38.079Z,95367.38
2022-08-26T02:51:05.034Z,95366.00
2022-08-26T02:53:35.672Z,95364.28
2022-08-26T02:56:06.809Z,95365.97
2022-08-26T02:58:34.343Z,95371.25
2022-08-26T03:01:01.740Z,95369.55
2022-08-26T03:03:32.870Z,95377.21
2022-08-26T03:06:00.557Z,95379.52
2022-08-26T03:08:27.368Z,95380.04
2022-08-26T03:10:54.307Z,95378.17
2022-08-26T03:13:21.246Z,95380.14
2022-08-26T03:15:48.555Z,95386.37
2022-08-26T03:18:15.782Z,95387.01
2022-08-26T03:20:42.942Z,95388.09
2022-08-26T03:23:11.904Z,95387.83
2022-08-26T03:25:39.464Z,95388.35
2022-08-26T03:28:06.512Z,95385.41
2022-08-26T03:30:44.191Z,95381.67
2022-08-26T03:33:14.130Z,95378.96
2022-08-26T03:35:43.327Z,95381.95
2022-08-26T03:38:10.891Z,95381.05
2022-08-26T03:40:38.732Z,95385.45
2022-08-26T03:43:09.820Z,95384.45
2022-08-26T03:45:37.467Z,95382.90
2022-08-26T03:48:05.425Z,95383.59
2022-08-26T03:50:34.254Z,95382.23
2022-08-26T03:53:01.710Z,95383.23
2022-08-26T03:55:32.149Z,95383.39
2022-08-26T03:58:00.247Z,95381.54
2022-08-26T04:00:27.731Z,95382.99
2022-08-26T04:02:54.591Z,95384.19
2022-08-26T04:05:22.909Z,95383.36
2022-08-26T04:07:51.460Z,95384.36
2022-08-26T04:10:22.673Z,95383.88
2022-08-26T04:12:58.860Z,95380.17
2022-08-26T04:15:27.331Z,95380.05
2022-08-26T04:17:54.350Z,95381.11
2022-08-26T04:20:23.090Z,95382.00
2022-08-26T04:22:50.877Z,95381.15
2022-08-26T04:25:18.316Z,95378.20
2022-08-26T04:27:45.571Z,95382.65
2022-08-26T04:30:15.715Z,95382.00
2022-08-26T04:32:44.264Z,95380.45
2022-08-26T04:35:11.567Z,95377.83
2022-08-26T04:37:39.738Z,95382.56
2022-08-26T04:40:10.932Z,95382.27
2022-08-26T04:42:38.414Z,95381.83
2022-08-26T04:45:10.248Z,95389.09
2022-08-26T04:47:38.602Z,95386.86
2022-08-26T04:50:07.776Z,95388.98
2022-08-26T04:52:36.068Z,95390.40
2022-08-26T04:55:04.334Z,95390.11
2022-08-26T04:57:33.753Z,95385.10
2022-08-26T05:00:00.677Z,95385.21
2022-08-26T05:02:27.541Z,95384.50
2022-08-26T05:04:55.182Z,95386.14
2022-08-26T05:07:22.353Z,95387.50
2022-08-26T05:09:49.388Z,95387.45
2022-08-26T05:12:16.857Z,95386.02
2022-08-26T05:14:46.443Z,95384.80
2022-08-26T05:17:15.044Z,95387.20
2022-08-26T05:19:42.849Z,95386.30
2022-08-26T05:22:10.558Z,95385.35
2022-08-26T05:24:40.906Z,95386.27
2022-08-26T05:27:11.523Z,95386.80
2022-08-26T05:29:40.019Z,95382.07
2022-08-26T05:32:07.179Z,95381.59
2022-08-26T05:34:34.407Z,95381.42
2022-08-26T05:37:01.766Z,95380.84
2022-08-26T05:39:31.188Z,95380.45
2022-08-26T05:41:58.934Z,95376.56
2022-08-26T05:44:26.701Z,95375.00
2022-08-26T05:46:53.373Z,95374.68
2022-08-26T05:49:20.286Z,95377.70
2022-08-26T05:51:49.300Z,95378.40
2022-08-26T05:54:21.852Z,95375.61
2022-08-26T05:56:50.850Z,95371.98
2022-08-26T05:59:21.380Z,95370.73
2022-08-26T06:01:53.076Z,95366.80
2022-08-26T06:04:20.106Z,95361.06
2022-08-26T06:06:47.040Z,95363.14
2022-08-26T06:09:13.756Z,95360.12
2022-08-26T06:11:40.556Z,95363.54
2022-08-26T06:14:07.936Z,95359.96
2022-08-26T06:16:38.099Z,95363.05
2022-08-26T06:19:10.676Z,95366.19
2022-08-26T06:21:41.001Z,95363.95
2022-08-26T06:24:30.348Z,95365.43
2022-08-26T06:27:03.646Z,95362.96
2022-08-26T06:29:33.739Z,95364.02
2022-08-26T06:32:02.055Z,95364.98
2022-08-26T06:34:30.320Z,95365.92
2022-08-26T06:37:01.987Z,95358.98
2022-08-26T06:39:31.132Z,95362.77
2022-08-26T06:41:59.589Z,95362.44
2022-08-26T06:44:26.819Z,95360.74
2022-08-26T06:46:54.227Z,95363.23
2022-08-26T06:49:25.809Z,95363.39
2022-08-26T06:51:59.200Z,95365.95
2022-08-26T06:54:29.667Z,95367.02
2022-08-26T06:56:57.207Z,95365.13
2022-08-26T06:59:24.827Z,95366.52
2022-08-26T07:01:51.628Z,95366.75
2022-08-26T07:04:20.298Z,95368.50
2022-08-26T07:06:52.789Z,95369.63
2022-08-26T07:09:22.534Z,95371.36
2022-08-26T07:11:50.751Z,95364.71
2022-08-26T07:14:19.287Z,95367.83
2022-08-26T07:16:51.627Z,95369.30
2022-08-26T07:19:27.493Z,95364.45
2022-08-26T07:22:01.437Z,95361.60
2022-08-26T07:24:28.395Z,95358.59
2022-08-26T07:27:01.168Z,95359.31
2022-08-26T07:29:28.707Z,95354.73
2022-08-26T07:31:56.322Z,95356.00
2022-08-26T07:34:24.594Z,95354.77
2022-08-26T07:36:53.922Z,95356.58
2022-08-26T07:39:22.252Z,95354.95
2022-08-26T07:41:49.838Z,95350.66
2022-08-26T07:44:17.636Z,95350.19
2022-08-26T07:46:44.963Z,95348.92
2022-08-26T07:49:21.645Z,95347.84
2022-08-26T07:51:49.300Z,95345.23
2022-08-26T07:54:16.456Z,95346.92
2022-08-26T07:56:44.346Z,95342.57
2022-08-26T07:59:13.621Z,95343.47
2022-08-26T08:01:44.870Z,95340.83
2022-08-26T08:04:17.829Z,95339.31
2022-08-26T08:06:45.414Z,95336.73
2022-08-26T08:09:14.597Z,95334.48
2022-08-26T08:11:44.333Z,95330.98
2022-08-26T08:14:12.494Z,95328.04
2022-08-26T08:16:45.928Z,95327.11
2022-08-26T08:19:14.914Z,95329.33
2022-08-26T08:21:43.064Z,95329.99
2022-08-26T08:24:10.926Z,95328.29
2022-08-26T08:26:38.573Z,95327.78
2022-08-26T08:29:08.181Z,95323.62
2022-08-26T08:34:27.690Z,95319.90
2022-08-26T08:36:56.130Z,95316.39
2022-08-26T08:39:24.514Z,95314.58
2022-08-26T08:42:11.693Z,95309.71
2022-08-26T08:44:44.821Z,95305.09
2022-08-26T08:47:25.128Z,95307.45
2022-08-26T08:49:55.281Z,95308.59
2022-08-26T08:52:34.586Z,95304.48
2022-08-26T08:55:05.246Z,95303.31
2022-08-26T08:58:06.294Z,95301.27
2022-08-26T09:00:45.872Z,95299.55
2022-08-26T09:03:54.193Z,95294.25
2022-08-26T09:06:21.219Z,95290.46
2022-08-26T09:08:50.037Z,95291.85
2022-08-26T09:11:19.917Z,95288.92
2022-08-26T09:13:50.846Z,95283.55
2022-08-26T09:16:32.484Z,95276.93
2022-08-26T09:19:04.402Z,95278.60
2022-08-26T09:21:32.378Z,95275.56
2022-08-26T09:23:59.969Z,95275.86
2022-08-26T09:26:47.408Z,95269.85
2022-08-26T09:29:17.832Z,95269.05
2022-08-26T09:31:45.454Z,95267.48
2022-08-26T09:34:24.856Z,95269.47
2022-08-26T09:36:57.553Z,95263.86
2022-08-26T09:39:27.098Z,95263.38
2022-08-26T09:42:11.114Z,95257.12
2022-08-26T09:45:03.041Z,95253.70
2022-08-26T09:47:29.621Z,95254.98
2022-08-26T09:50:21.306Z,95252.65
2022-08-26T09:53:02.802Z,95250.08
2022-08-26T09:55:29.662Z,95247.02
2022-08-26T09:57:58.210Z,95248.77
2022-08-26T10:00:29.878Z,95247.42
2022-08-26T10:03:03.711Z,95247.98
2022-08-26T10:05:40.062Z,95249.25
2022-08-26T10:08:15.986Z,95250.40
2022-08-26T10:10:45.173Z,95249.29
2022-08-26T10:13:17.352Z,95247.37
2022-08-26T10:16:22.814Z,95248.88
2022-08-26T10:18:56.861Z,95248.87
2022-08-26T10:21:44.397Z,95243.59
2022-08-26T10:24:22.021Z,95246.73
2022-08-26T10:27:10.147Z,95244.47
2022-08-26T10:29:47.497Z,95242.88
2022-08-26T10:32:41.371Z,95239.81
2022-08-26T10:35:12.920Z,95236.34
2022-08-26T10:37:48.068Z,95235.42
2022-08-26T10:40:24.144Z,95235.79
2022-08-26T10:43:10.933Z,95238.64
2022-08-26T10:45:46.509Z,95237.64
2022-08-26T10:48:35.883Z,95237.40
2022-08-26T10:51:03.876Z,95236.27
2022-08-26T10:54:00.596Z,95237.17
2022-08-26T10:56:58.621Z,95233.23
2022-08-26T10:59:48.518Z,95229.70
2022-08-26T11:02:30.863Z,95230.00
2022-08-26T11:05:05.029Z,95231.46
2022-08-26T11:07:47.884Z,95231.48
2022-08-26T11:10:16.152Z,95227.92
2022-08-26T11:12:44.753Z,95227.13
2022-08-26T11:15:33.002Z,95227.63
2022-08-26T11:18:06.849Z,95224.88
2022-08-26T11:20:45.117Z,95225.93
2022-08-26T11:23:12.711Z,95218.09
2022-08-26T11:26:04.820Z,95215.60
2022-08-26T11:28:43.980Z,95216.21
2022-08-26T11:31:39.950Z,95213.81
2022-08-26T11:34:12.497Z,95214.04
2022-08-26T11:36:45.258Z,95212.81
2022-08-26T11:39:54.468Z,95213.46
2022-08-26T11:42:45.903Z,95207.66
2022-08-26T11:45:12.896Z,95202.48
2022-08-26T11:47:39.937Z,95197.80
2022-08-26T11:50:27.970Z,95193.00
2022-08-26T11:53:03.837Z,95189.45
2022-08-26T11:55:36.513Z,95186.88
2022-08-26T11:58:06.616Z,95190.05
2022-08-26T12:00:49.760Z,95191.86
2022-08-26T12:03:31.428Z,95190.10
2022-08-26T12:05:59.040Z,95187.39
2022-08-26T12:08:30.552Z,95189.11
2022-08-26T12:11:12.945Z,95182.25
2022-08-26T12:13:42.058Z,95180.66
2022-08-26T12:16:09.610Z,95178.02
2022-08-26T12:18:38.537Z,95175.39
2022-08-26T12:21:21.817Z,95174.27
2022-08-26T12:23:51.756Z,95175.23
2022-08-26T12:26:26.613Z,95177.89
2022-08-26T12:29:01.640Z,95176.28
2022-08-26T12:31:43.681Z,95172.83
2022-08-26T12:34:18.162Z,95169.55
2022-08-26T12:36:54.869Z,95168.17
2022-08-26T12:39:34.988Z,95166.56
2022-08-26T12:42:04.235Z,95161.95
2022-08-26T12:44:59.470Z,95160.86
2022-08-26T12:47:44.013Z,95160.61
2022-08-26T12:50:18.857Z,95158.38
2022-08-26T12:53:31.433Z,95155.87
2022-08-26T12:56:03.064Z,95151.41
2022-08-26T12:58:31.210Z,95151.93
2022-08-26T13:01:21.889Z,95147.70
2022-08-26T13:03:49.249Z,95154.59
2022-08-26T13:06:16.384Z,95153.69
2022-08-26T13:08:44.598Z,95151.55
2022-08-26T13:11:32.924Z,95153.94
2022-08-26T13:14:07.186Z,95150.21
2022-08-26T13:16:35.703Z,95148.48
2022-08-26T13:19:06.425Z,95145.88
2022-08-26T13:21:43.291Z,95144.51
2022-08-26T13:24:14.556Z,95143.23
2022-08-26T13:26:43.665Z,95142.29
2022-08-26T13:29:11.550Z,95140.10
2022-08-26T13:31:40.806Z,95137.37
2022-08-26T13:34:11.044Z,95137.11
2022-08-26T13:36:38.098Z,95135.60
2022-08-26T13:39:05.967Z,95131.14
2022-08-26T13:41:32.949Z,95131.55
2022-08-26T13:43:59.804Z,95130.18
2022-08-26T13:46:27.732Z,95126.05
2022-08-26T13:48:56.078Z,95125.77
2022-08-26T13:51:23.589Z,95120.70
2022-08-26T13:53:50.632Z,95125.46
2022-08-26T13:56:18.296Z,95123.49
2022-08-26T13:58:46.321Z,95125.00
2022-08-26T14:01:15.064Z,95119.48
2022-08-26T14:03:43.057Z,95121.56
2022-08-26T14:06:10.291Z,95116.05
2022-08-26T14:08:38.327Z,95115.15
2022-08-26T14:11:05.149Z,95118.08
2022-08-26T14:13:31.962Z,95113.75
2022-08-26T14:16:00.816Z,95116.73
2022-08-26T14:18:32.555Z,95114.45
2022-08-26T14:20:59.837Z,95110.83
2022-08-26T14:23:27.131Z,95110.38
2022-08-26T14:25:54.329Z,95109.09
2022-08-26T14:28:21.412Z,95109.98
2022-08-26T14:30:54.962Z,95110.43
2022-08-26T14:33:25.652Z,95104.13
2022-08-26T14:36:13.087Z,95104.55
2022-08-26T14:38:39.910Z,95108.55
2022-08-26T14:41:07.038Z,95113.76
2022-08-26T14:43:33.872Z,95113.29
2022-08-26T14:46:00.832Z,95112.14
2022-08-26T14:48:27.713Z,95111.23
2022-08-26T14:50:55.134Z,95111.80
2022-08-26T14:53:40.642Z,95111.42
2022-08-26T14:56:08.689Z,95112.13
2022-08-26T14:58:35.638Z,95108.12
2022-08-26T15:01:04.271Z,95108.41
2022-08-26T15:03:31.236Z,95107.52
2022-08-26T15:05:59.316Z,95112.20
2022-08-26T15:08:26.219Z,95106.70
2022-08-26T15:10:53.136Z,95107.77
2022-08-26T15:13:19.836Z,95109.52
2022-08-26T15:15:46.754Z,95112.02
2022-08-26T15:18:13.588Z,95110.55
2022-08-26T15:20:40.515Z,95110.30
2022-08-26T15:23:07.473Z,95106.57
2022-08-26T15:25:34.554Z,95101.70
2022-08-26T15:28:01.970Z,95102.77
2022-08-26T15:30:28.942Z,95102.13
2022-08-26T15:32:56.069Z,95098.55
2022-08-26T15:35:23.733Z,95101.14
2022-08-26T15:40:22.465Z,95104.09
2022-08-26T15:42:57.571Z,95103.38
2022-08-26T15:45:28.305Z,95098.90
2022-08-26T15:48:01.510Z,95097.00
2022-08-26T15:50:29.891Z,95091.02
2022-08-26T15:52:59.003Z,95091.19
2022-08-26T15:55:26.038Z,95087.87
2022-08-26T15:57:52.913Z,95090.52
2022-08-26T16:00:20.111Z,95092.53
2022-08-26T16:02:47.813Z,95090.73
2022-08-26T16:05:14.753Z,95088.22
2022-08-26T16:07:41.590Z,95088.27
2022-08-26T16:10:08.879Z,95088.55
2022-08-26T16:12:35.594Z,95092.20
2022-08-26T16:15:02.439Z,95090.67
2022-08-26T16:17:29.419Z,95094.33
2022-08-26T16:19:56.648Z,95093.34
2022-08-26T16:22:24.093Z,95091.83
2022-08-26T16:24:57.183Z,95091.22
2022-08-26T16:27:24.129Z,95092.77
2022-08-26T16:29:51.179Z,95090.87
2022-08-26T16:32:18.342Z,95093.70
2022-08-26T16:34:56.379Z,95095.66
2022-08-26T16:37:24.102Z,95096.04
2022-08-26T16:39:51.098Z,95097.34
2022-08-26T16:42:18.463Z,95097.33
2022-08-26T16:44:45.584Z,95102.48
2022-08-26T16:47:17.761Z,95096.56
2022-08-26T16:49:44.598Z,95093.60
2022-08-26T16:52:12.142Z,95088.65
2022-08-26T16:54:41.634Z,95087.48
2022-08-26T16:57:10.777Z,95091.23
2022-08-26T16:59:39.052Z,95087.41
2022-08-26T17:02:07.140Z,95089.63
2022-08-26T17:04:33.994Z,95091.44
2022-08-26T17:07:00.882Z,95096.13
2022-08-26T17:09:27.849Z,95091.37
2022-08-26T17:11:54.981Z,95093.14
2022-08-26T17:14:21.954Z,95095.74
2022-08-26T17:16:52.851Z,95097.60
2022-08-26T17:19:20.840Z,95097.75
2022-08-26T17:21:48.718Z,95098.98
2022-08-26T17:24:16.270Z,95102.71
2022-08-26T17:26:47.810Z,95105.80
2022-08-26T17:29:17.110Z,95106.81
2022-08-26T17:31:44.383Z,95111.65
2022-08-26T17:34:11.337Z,95109.90
2022-08-26T17:36:38.382Z,95107.73
2022-08-26T17:39:05.345Z,95110.30
2022-08-26T17:41:32.453Z,95113.84
2022-08-26T17:43:59.334Z,95110.21
2022-08-26T17:46:26.402Z,95111.89
2022-08-26T17:48:53.460Z,95114.41
2022-08-26T17:51:22.464Z,95113.33
2022-08-26T17:53:50.899Z,95113.23
2022-08-26T17:56:23.309Z,95117.89
2022-08-26T17:58:51.800Z,95120.28
2022-08-26T18:01:25.566Z,95124.02
2022-08-26T18:03:58.206Z,95124.02
2022-08-26T18:06:29.915Z,95124.17
2022-08-26T18:08:57.248Z,95124.29
2022-08-26T18:11:24.206Z,95126.90
2022-08-26T18:13:51.256Z,95123.94
2022-08-26T18:16:19.537Z,95125.27
2022-08-26T18:18:48.017Z,95122.39
2022-08-26T18:21:18.444Z,95120.11
2022-08-26T18:23:46.400Z,95121.52
2022-08-26T18:26:31.584Z,95121.21
2022-08-26T18:28:59.260Z,95119.66
2022-08-26T18:31:26.884Z,95123.94
2022-08-26T18:33:54.666Z,95124.23
2022-08-26T18:36:25.610Z,95124.52
2022-08-26T18:38:53.475Z,95121.54
2022-08-26T18:41:22.504Z,95118.93
2022-08-26T18:43:51.384Z,95117.49
2022-08-26T18:46:21.743Z,95117.12
2022-08-26T18:48:51.027Z,95118.10
2022-08-26T18:51:21.644Z,95115.27
2022-08-26T18:53:48.874Z,95119.44
2022-08-26T18:56:18.545Z,95114.32
2022-08-26T18:58:46.606Z,95115.34
2022-08-26T19:01:14.923Z,95117.56
2022-08-26T19:03:42.524Z,95118.02
2022-08-26T19:06:15.174Z,95118.59
2022-08-26T19:08:44.493Z,95120.13
2022-08-26T19:11:13.993Z,95123.30
2022-08-26T19:13:42.256Z,95125.17
2022-08-26T19:16:20.634Z,95127.58
2022-08-26T19:18:49.737Z,95130.70
2022-08-26T19:21:17.170Z,95124.80
2022-08-26T19:23:44.109Z,95126.13
2022-08-26T19:26:12.004Z,95125.77
2022-08-26T19:28:40.277Z,95129.39
2022-08-26T19:31:09.918Z,95131.74
2022-08-26T19:33:38.952Z,95130.89
2022-08-26T19:36:06.665Z,95132.38
2022-08-26T19:38:34.208Z,95127.25
2022-08-26T19:41:01.341Z,95127.30
2022-08-26T19:43:28.318Z,95126.02
2022-08-26T19:45:59.079Z,95124.29
2022-08-26T19:48:26.074Z,95126.88
2022-08-26T19:50:52.816Z,95126.88
2022-08-26T19:53:19.572Z,95127.05
2022-08-26T19:55:46.524Z,95127.16
2022-08-26T19:58:14.171Z,95128.23
2022-08-26T20:00:41.822Z,95126.36
2022-08-26T20:03:08.984Z,95124.87
2022-08-26T20:05:41.768Z,95125.05
2022-08-26T20:08:09.090Z,95124.73
2022-08-26T20:10:49.278Z,95125.33
2022-08-26T20:13:16.544Z,95122.90
2022-08-26T20:15:44.019Z,95118.27
2022-08-26T20:18:29.272Z,95120.93
2022-08-26T20:21:15.372Z,95121.52
2022-08-26T20:23:43.347Z,95123.45
2022-08-26T20:26:10.287Z,95127.69
2022-08-26T20:28:37.458Z,95130.35
2022-08-26T20:31:05.003Z,95133.82
2022-08-26T20:33:32.067Z,95136.52
2022-08-26T20:36:14.548Z,95133.08
2022-08-26T20:38:41.487Z,95131.17
2022-08-26T20:41:08.454Z,95130.45
2022-08-26T20:43:35.504Z,95132.73
2022-08-26T20:46:02.510Z,95134.57
2022-08-26T20:48:35.366Z,95132.88
2022-08-26T20:51:03.333Z,95132.48
2022-08-26T20:53:31.148Z,95130.14
2022-08-26T20:56:04.145Z,95134.13
2022-08-26T20:58:30.849Z,95134.30
2022-08-26T21:00:58.274Z,95134.81
2022-08-26T21:03:25.211Z,95129.12
2022-08-26T21:05:52.159Z,95130.31
2022-08-26T21:08:19.104Z,95135.73
2022-08-26T21:10:50.440Z,95137.09
2022-08-26T21:13:19.122Z,95135.08
2022-08-26T21:15:46.093Z,95138.42
2022-08-26T21:18:13.038Z,95143.48
2022-08-26T21:20:39.802Z,95144.70
2022-08-26T21:23:06.573Z,95145.04
2022-08-26T21:25:33.391Z,95145.39
2022-08-26T21:28:00.192Z,95147.30
2022-08-26T21:30:27.055Z,95144.26
2022-08-26T21:32:53.798Z,95144.16
2022-08-26T21:35:20.643Z,95142.65
2022-08-26T21:37:47.896Z,95142.39
2022-08-26T21:40:14.783Z,95142.22
2022-08-26T21:42:41.814Z,95146.13
2022-08-26T21:45:09.430Z,95146.40
2022-08-26T21:47:36.630Z,95147.65
2022-08-26T21:50:04.305Z,95146.15
2022-08-26T21:52:31.227Z,95142.80
2022-08-26T21:54:59.930Z,95142.95
2022-08-26T21:57:28.549Z,95141.89
2022-08-26T21:59:56.702Z,95146.52
2022-08-26T22:02:24.286Z,95146.84
2022-08-26T22:04:51.125Z,95146.99
2022-08-26T22:07:19.242Z,95147.42
2022-08-26T22:09:46.721Z,95145.68
2022-08-26T22:12:14.168Z,95145.59
2022-08-26T22:14:41.036Z,95149.02
2022-08-26T22:17:08.060Z,95148.11
2022-08-26T22:19:46.116Z,95147.43
2022-08-26T22:22:14.624Z,95146.52
2022-08-26T22:24:42.828Z,95147.81
2022-08-26T22:27:11.396Z,95149.15
2022-08-26T22:29:38.694Z,95145.98
2022-08-26T22:32:06.294Z,95145.49
2022-08-26T22:34:33.611Z,95144.08
2022-08-26T22:37:02.609Z,95144.19
2022-08-26T22:39:30.540Z,95144.55
2022-08-26T22:41:57.497Z,95141.98
2022-08-26T22:44:24.231Z,95137.83
2022-08-26T22:46:53.648Z,95139.22
2022-08-26T22:49:21.109Z,95141.16
2022-08-26T22:51:48.351Z,95141.30
2022-08-26T22:54:16.209Z,95145.52
2022-08-26T22:56:44.720Z,95145.02
2022-08-26T22:59:13.095Z,95141.46
2022-08-26T23:01:42.804Z,95141.67
2022-08-26T23:04:10.553Z,95138.30
2022-08-26T23:06:39.256Z,95134.87
2022-08-26T23:09:07.479Z,95134.05
2022-08-26T23:11:34.721Z,95130.13
2022-08-26T23:14:06.371Z,95129.02
2022-08-26T23:16:38.003Z,95128.45
2022-08-26T23:19:10.393Z,95126.73
2022-08-26T23:21:38.340Z,95129.44
2022-08-26T23:24:07.102Z,95128.08
2022-08-26T23:26:34.929Z,95125.84
2022-08-26T23:29:02.672Z,95121.54
2022-08-26T23:31:29.556Z,95121.39
2022-08-26T23:34:14.894Z,95121.54
2022-08-26T23:36:42.969Z,95119.79
2022-08-26T23:39:11.687Z,95121.34
2022-08-26T23:41:38.705Z,95121.34
2022-08-26T23:44:05.860Z,95118.17
2022-08-26T23:46:33.998Z,95119.02
2022-08-26T23:49:01.389Z,95112.33
2022-08-26T23:51:46.678Z,95112.53
2022-08-26T23:54:15.693Z,95115.26
2022-08-26T23:56:43.005Z,95110.61
2022-08-26T23:59:09.864Z,95112.73
